Latest Weather Observations for Bega

IDN60801

Issued at 11:03 am EDT Thursday 19 October 2017 (issued every 30 minutes, with the page automatically refreshed every 10 minutes)

About weather observations | Map of weather stations | Latest weather observations for NSW | Other Formats
Station Details ID: 069139 Name: BEGA AWS Lat: -36.67 Lon: 149.82 Height: 41.0 m
Data from the previous 72 hours. | See also: Recent months at Bega
Date/Time
EDT
Temp
°C
App
Temp
°C
Dew
Point
°C
Rel
Hum
%
Delta-T
°C
Wind Press
QNH
hPa
Press
MSL
hPa
Rain since
9am
mm
Dir  Spd
km/h
Gust
km/h
Spd
kts
Gust
kts
19/11:00am 26.8 26.1 15.5 50 6.9 ENE 13 19 7 10 1018.4 1018.3 0.0
19/10:30am 25.3 25.6 15.9 56 5.7 ENE 9 15 5 8 1018.8 1018.7 0.0
19/10:00am 23.2 22.7 13.9 56 5.4 ENE 9 13 5 7 1019.4 1019.3 0.0
19/09:30am 21.3 21.5 14.2 64 4.1 SSE 6 9 3 5 1019.9 1019.8 0.0
19/09:00am 19.1 19.2 14.4 74 2.7 SSE 7 11 4 6 1020.2 1020.1 0.0
19/08:30am 16.5 16.1 14.0 85 1.4 SSW 9 13 5 7 1020.5 1020.4 0.0
19/08:00am 14.4 13.7 13.3 93 0.6 S 9 11 5 6 1020.6 1020.5 0.0
19/07:30am 12.3 11.2 11.8 97 0.3 S 9 13 5 7 1020.6 1020.5 0.0
19/07:00am 11.3 10.5 11.1 99 0.1 S 6 9 3 5 1020.7 1020.6 0.0
19/06:30am 10.8 9.9 10.6 99 0.1 SSW 6 7 3 4 1020.7 1020.6 0.0
19/06:00am 11.0 9.9 10.8 99 0.1 SSW 7 11 4 6 1020.7 1020.6 0.0
19/05:30am 11.3 10.5 11.1 99 0.1 S 6 7 3 4 1020.8 1020.7 0.0
19/05:00am 11.8 11.2 11.6 99 0.1 S 6 7 3 4 1020.8 1020.7 0.0
19/04:30am 11.9 11.1 11.7 99 0.1 S 7 11 4 6 1020.8 1020.7 0.0
19/04:00am 12.2 11.5 11.9 98 0.2 S 7 9 4 5 1020.8 1020.7 0.0
19/03:30am 12.6 12.9 12.1 97 0.3 SSW 2 9 1 5 1021.0 1020.9 0.0
19/03:00am 13.0 12.6 12.4 96 0.3 WNW 6 7 3 4 1021.3 1021.2 0.0
19/02:30am 13.2 12.7 12.1 93 0.6 SW 6 7 3 4 1021.7 1021.6 0.0
19/02:00am 14.7 15.4 13.4 92 0.7 NW 2 9 1 5 1021.9 1021.8 0.0
19/01:30am 16.1 16.1 14.1 88 1.1 NW 7 9 4 5 1022.3 1022.2 0.0
19/01:00am 16.9 17.2 14.4 85 1.4 NNW 6 7 3 4 1022.5 1022.4 0.0
19/12:30am 16.7 17.7 14.3 86 1.4 SE 2 6 1 3 1022.8 1022.7 0.0
19/12:00am 16.1 16.0 13.4 84 1.5 SSW 6 9 3 5 1022.9 1022.8 0.0
 
Date/Time
EDT
Temp
°C
App
Temp
°C
Dew
Point
°C
Rel
Hum
%
Delta-T
°C
Wind Press
QNH
hPa
Press
MSL
hPa
Rain since
9am
mm
Dir  Spd
km/h
Gust
km/h
Spd
kts
Gust
kts
18/11:30pm 16.7 16.8 14.0 84 1.5 SSW 6 11 3 6 1023.0 1022.9 0.0
18/11:00pm 17.7 17.0 14.4 81 1.9 N 11 15 6 8 1022.9 1022.8 0.0
18/10:30pm 17.9 16.8 14.4 80 2.0 N 13 19 7 10 1022.9 1022.8 0.0
18/10:00pm 18.3 17.7 14.6 79 2.1 N 11 20 6 11 1023.1 1023.0 0.0
18/09:30pm 18.3 17.6 14.2 77 2.4 NNE 11 19 6 10 1023.2 1023.1 0.0
18/09:00pm 18.7 17.6 14.4 76 2.5 N 13 19 7 10 1023.2 1023.1 0.0
18/08:30pm 19.0 16.8 14.3 74 2.7 N 19 26 10 14 1023.0 1022.9 0.0
18/08:00pm 19.5 16.6 14.1 71 3.1 N 22 32 12 17 1022.6 1022.5 0.0
18/07:30pm 19.0 18.1 13.6 71 3.1 NNE 11 19 6 10 1022.4 1022.3 0.0
18/07:00pm 20.2 18.3 14.1 68 3.5 NE 17 24 9 13 1022.2 1022.1 0.0
18/06:30pm 21.2 19.3 14.1 64 4.1 NE 17 26 9 14 1022.1 1022.0 0.0
18/06:00pm 21.9 18.7 14.3 62 4.4 NE 24 35 13 19 1022.0 1021.9 0.0
18/05:30pm 22.5 18.7 14.6 61 4.7 NE 28 41 15 22 1021.8 1021.7 0.0
18/05:00pm 22.7 17.5 14.5 60 4.8 NE 35 44 19 24 1021.5 1021.4 0.0
18/04:30pm 23.3 19.4 14.3 57 5.3 NE 28 39 15 21 1021.6 1021.5 0.0
18/04:00pm 24.2 19.8 14.0 53 6.0 NE 30 43 16 23 1021.5 1021.4 0.0
18/03:30pm 23.9 20.1 14.6 56 5.5 ENE 28 39 15 21 1022.0 1021.9 0.0
18/03:00pm 24.6 20.0 15.0 55 5.7 NE 33 43 18 23 1022.1 1022.0 0.0
18/02:30pm 24.8 21.1 14.9 54 5.9 ENE 28 41 15 22 1022.7 1022.6 0.0
18/02:00pm 25.2 21.4 14.6 51 6.3 ENE 28 39 15 21 1023.0 1022.9 0.0
18/01:30pm 25.1 21.4 14.9 53 6.1 NE 28 37 15 20 1023.6 1023.6 0.0
18/01:00pm 25.0 22.2 13.2 48 6.9 ENE 20 30 11 16 1023.9 1023.9 0.0
18/12:30pm 25.3 21.7 12.9 46 7.2 NE 24 32 13 17 1024.2 1024.2 0.0
18/12:00pm 23.4 19.1 12.1 49 6.4 NE 26 35 14 19 1024.5 1024.5 0.0
18/11:30am 25.1 22.0 12.3 45 7.4 ENE 20 30 11 16 1024.7 1024.7 0.0
18/11:00am 24.4 23.0 11.0 43 7.5 NNE 9 13 5 7 1025.2 1025.2 0.0
18/10:30am 22.4 21.3 10.5 47 6.5 NE 7 13 4 7 1025.6 1025.6 0.0
18/10:00am 21.1 20.1 10.9 52 5.6 E 7 11 4 6 1025.8 1025.8 0.0
18/09:30am 18.9 18.3 11.7 63 4.0 NE 6 7 3 4 1026.0 1026.0 0.0
18/09:00am 16.1 15.6 12.1 77 2.2 SE 6 9 3 5 1026.1 1026.1 0.0
18/08:30am 12.8 13.1 10.9 88 1.0 CALM 0 0 0 0 1026.2 1026.2 0.0
18/08:00am 10.8 10.1 10.2 96 0.3 S 4 7 2 4 1026.3 1026.3 0.0
18/07:30am 9.1 7.6 9.0 99 0.0 S 7 9 4 5 1026.2 1026.2 0.0
18/07:00am 8.0 7.1 7.9 99 0.0 SSW 2 6 1 3 1026.2 1026.2 0.0
18/06:30am 8.1 6.5 8.0 99 0.0 SSW 6 7 3 4 1026.0 1026.0 0.0
18/06:00am 8.7 8.4 8.6 99 0.0 CALM 0 0 0 0 1025.7 1025.7 0.0
18/05:30am 9.0 8.7 8.7 98 0.1 CALM 0 0 0 0 1025.5 1025.5 0.0
18/05:00am 9.6 9.4 9.1 97 0.2 CALM 0 0 0 0 1025.5 1025.5 0.0
18/04:30am 9.8 9.7 9.3 97 0.2 CALM 0 0 0 0 1025.4 1025.4 0.0
18/04:00am 10.2 9.0 9.7 97 0.2 SSW 6 7 3 4 1025.5 1025.5 0.0
18/03:30am 10.3 8.6 9.7 96 0.3 S 9 11 5 6 1025.2 1025.2 0.0
18/03:00am 10.9 11.0 10.1 95 0.4 CALM 0 0 0 0 1025.1 1025.1 0.0
18/02:30am 11.6 11.3 10.0 90 0.8 SSE 2 6 1 3 1025.2 1025.2 0.0
18/02:00am 13.4 13.8 11.1 86 1.2 CALM 0 0 0 0 1025.3 1025.3 0.0
18/01:30am 14.8 14.6 11.9 83 1.6 N 4 9 2 5 1025.6 1025.6 0.0
18/01:00am 14.9 14.4 12.0 83 1.6 NE 6 7 3 4 1025.8 1025.8 0.0
18/12:30am 15.7 15.2 11.9 78 2.1 NE 6 19 3 10 1025.9 1025.9 0.0
18/12:00am 16.6 14.6 12.6 77 2.2 NNW 15 20 8 11 1025.9 1025.9 0.0
 
Date/Time
EDT
Temp
°C
App
Temp
°C
Dew
Point
°C
Rel
Hum
%
Delta-T
°C
Wind Press
QNH
hPa
Press
MSL
hPa
Rain since
9am
mm
Dir  Spd
km/h
Gust
km/h
Spd
kts
Gust
kts
17/11:30pm 16.7 14.6 12.5 76 2.3 N 15 24 8 13 1026.2 1026.2 0.0
17/11:00pm 17.4 14.1 12.9 75 2.5 N 22 32 12 17 1026.3 1026.3 0.0
17/10:30pm 17.1 14.8 13.0 77 2.3 N 17 26 9 14 1026.4 1026.4 0.0
17/10:00pm 16.3 15.8 11.9 75 2.4 NNE 6 11 3 6 1026.6 1026.6 0.0
17/09:30pm 16.1 16.6 11.5 74 2.5 CALM 0 0 0 0 1026.7 1026.7 0.0
17/09:00pm 17.0 16.3 11.9 72 2.8 N 7 9 4 5 1026.5 1026.5 0.0
17/08:30pm 17.8 16.7 12.0 69 3.2 NNE 9 13 5 7 1026.3 1026.3 0.0
17/08:00pm 18.1 16.3 12.1 68 3.3 NNE 13 17 7 9 1025.9 1025.9 0.0
17/07:30pm 18.9 16.4 12.4 66 3.6 NE 17 22 9 12 1025.5 1025.5 0.0
17/07:00pm 19.8 16.4 12.6 63 4.0 NE 22 32 12 17 1024.9 1024.9 0.0
17/06:30pm 20.6 16.2 12.8 61 4.4 NE 28 37 15 20 1024.1 1024.1 0.0
17/06:00pm 21.8 18.2 12.9 57 5.1 NE 24 37 13 20 1023.8 1023.8 0.0
17/05:30pm 22.7 18.8 13.2 55 5.5 NE 26 35 14 19 1023.5 1023.5 0.0
17/05:00pm 23.4 19.0 13.0 52 6.0 NE 28 35 15 19 1023.1 1023.0 0.0
17/04:30pm 24.5 20.6 13.4 50 6.5 NE 26 35 14 19 1022.9 1022.8 0.0
17/04:00pm 24.7 20.5 13.6 50 6.5 ENE 28 37 15 20 1022.8 1022.7 0.0
17/03:30pm 24.6 20.6 14.1 52 6.2 NE 28 37 15 20 1022.9 1022.8 0.0
17/03:00pm 24.7 19.9 13.9 51 6.3 NE 32 43 17 23 1023.2 1023.1 0.0
17/02:30pm 24.8 19.6 12.7 47 7.0 NE 32 41 17 22 1023.6 1023.6 0.0
17/02:00pm 25.0 19.9 11.9 44 7.4 ENE 30 39 16 21 1023.9 1023.9 0.0
17/01:30pm 25.5 20.8 12.0 43 7.7 NE 28 33 15 18 1024.1 1024.1 0.0
17/01:00pm 25.3 20.5 11.8 43 7.7 ENE 28 37 15 20 1024.5 1024.5 0.0
17/12:30pm 25.4 21.3 11.6 42 7.8 NE 24 30 13 16 1024.8 1024.8 0.0
17/12:00pm 26.5 23.4 10.2 36 9.1 NE 17 22 9 12 1025.3 1025.3 0.0
17/11:30am 24.7 23.1 8.6 36 8.7 NE 7 13 4 7 1025.8 1025.8 0.0
17/11:00am 24.0 22.2 9.6 40 7.8 NE 9 15 5 8 1026.2 1026.2 0.0
17/10:30am 22.0 20.2 9.5 45 6.7 NE 9 15 5 8 1026.4 1026.4 0.0
17/10:00am 20.2 20.4 12.9 63 4.1 ENE 4 9 2 5 1026.6 1026.6 0.0
17/09:30am 17.2 18.0 13.7 80 2.0 ESE 2 7 1 4 1026.8 1026.8 0.0
17/09:00am 13.2 14.1 13.0 99 0.1 CALM 0 0 0 0 1026.8 1026.8 0.0
17/08:30am 10.8 10.6 10.6 99 0.1 SSE 2 6 1 3 1026.7 1026.7 0.0
17/08:00am 10.2 10.3 10.1 99 0.1 CALM 0 0 0 0 1026.6 1026.6 0.0
17/07:30am 8.6 8.3 8.5 99 0.0 CALM 0 0 0 0 1026.4 1026.4 0.0
17/07:00am 8.0 7.5 7.9 99 0.0 CALM 0 0 0 0 1026.0 1026.0 0.0
17/06:30am 8.6 8.3 8.5 99 0.0 CALM 0 0 0 0 1025.6 1025.6 0.0
17/06:00am 8.1 6.5 8.0 99 0.0 SSW 6 7 3 4 1025.4 1025.4 0.0
17/05:30am 8.5 7.0 8.4 99 0.0 SSW 6 9 3 5 1025.2 1025.2 0.0
17/05:00am 9.7 9.6 9.6 99 0.0 CALM 0 0 0 0 1025.1 1025.1 0.0
17/04:30am 9.6 9.5 9.5 99 0.0 CALM 0 0 0 0 1025.1 1025.1 0.0
17/04:00am 9.4 9.3 9.3 99 0.0 CALM 0 0 0 0 1025.3 1025.3 0.0
17/03:30am 9.9 9.9 9.8 99 0.1 CALM 0 0 0 0 1025.4 1025.4 0.0
17/03:00am 10.2 10.2 9.9 98 0.2 CALM 0 2 0 1 1025.6 1025.6 0.0
17/02:30am 10.5 10.6 10.2 98 0.2 CALM 0 0 0 0 1025.7 1025.7 0.0
17/02:00am 10.9 10.0 10.6 98 0.2 S 6 9 3 5 1026.2 1026.2 0.0
17/01:30am 10.8 9.6 10.2 96 0.3 S 7 9 4 5 1026.4 1026.4 0.0
17/01:00am 11.3 11.5 10.4 94 0.5 CALM 0 0 0 0 1026.6 1026.6 0.0
17/12:30am 12.0 12.2 10.7 92 0.7 CALM 0 6 0 3 1027.0 1027.0 0.0
17/12:00am 12.5 12.0 10.9 90 0.8 SSW 4 6 2 3 1027.1 1027.1 0.0
 
Date/Time
EDT
Temp
°C
App
Temp
°C
Dew
Point
°C
Rel
Hum
%
Delta-T
°C
Wind Press
QNH
hPa
Press
MSL
hPa
Rain since
9am
mm
Dir  Spd
km/h
Gust
km/h
Spd
kts
Gust
kts
16/11:30pm 13.3 13.6 11.0 86 1.2 CALM 0 0 0 0 1027.1 1027.1 0.0
16/11:00pm 14.9 15.6 12.2 84 1.5 CALM 0 0 0 0 1026.9 1026.9 0.0
16/10:30pm 14.6 14.5 12.1 85 1.4 SSW 4 7 2 4 1026.9 1026.9 0.0
16/10:00pm 15.6 16.2 12.0 79 1.9 CALM 0 0 0 0 1026.9 1026.9 0.0
16/09:30pm 16.1 16.8 12.1 77 2.2 CALM 0 0 0 0 1026.8 1026.8 0.0
16/09:00pm 16.4 16.3 12.2 76 2.3 NE 4 7 2 4 1026.6 1026.6 0.0
16/08:30pm 16.8 15.8 12.3 75 2.5 NE 9 13 5 7 1026.1 1026.1 0.0
16/08:00pm 17.4 16.5 12.7 74 2.6 NE 9 13 5 7 1025.6 1025.6 0.0
16/07:30pm 18.3 16.4 13.0 71 3.0 NNE 15 20 8 11 1025.2 1025.2 0.0
16/07:00pm 19.1 16.5 13.3 69 3.3 NE 19 24 10 13 1024.8 1024.8 0.0
16/06:30pm 19.8 16.4 13.7 68 3.5 NE 24 32 13 17 1024.6 1024.6 0.0
16/06:00pm 20.5 16.5 14.2 67 3.6 NE 28 35 15 19 1024.5 1024.5 0.0
16/05:30pm 21.0 16.6 14.2 65 4.0 NE 30 41 16 22 1024.2 1024.2 0.0
16/05:00pm 21.5 17.0 13.7 61 4.5 NE 30 39 16 21 1024.0 1024.0 0.0
16/04:30pm 22.8 18.8 14.1 58 5.1 NE 28 41 15 22 1024.1 1024.1 0.0
16/04:00pm 23.6 19.1 13.8 54 5.7 NE 30 41 16 22 1024.1 1024.1 0.0
16/03:30pm 23.7 18.9 13.0 51 6.2 NE 30 43 16 23 1024.3 1024.3 0.0
16/03:00pm 23.8 19.5 13.1 51 6.2 ENE 28 39 15 21 1024.4 1024.4 0.0
16/02:30pm 23.8 19.2 13.4 52 6.1 ENE 30 39 16 21 1024.6 1024.6 0.0
16/02:00pm 24.3 20.0 13.2 50 6.4 NE 28 33 15 18 1025.0 1025.0 0.0
16/01:30pm 24.6 20.3 13.2 49 6.6 ENE 28 35 15 19 1025.2 1025.2 0.0
16/01:00pm 24.8 22.7 14.6 53 6.1 ENE 19 28 10 15 1025.6 1025.6 0.0
16/12:30pm 24.7 23.8 14.8 54 5.9 E 13 24 7 13 1025.9 1025.9 0.0
16/12:00pm 22.9 21.5 14.5 59 4.9 SE 15 24 8 13 1026.5 1026.5 0.0
16/11:30am 22.7 22.4 14.5 60 4.8 E 9 13 5 7 1026.9 1026.9 0.0

Other Formats:

Comma delimited format used in spreadsheet applications
http://www.bom.gov.au/fwo/IDN60801/IDN60801.95931.axf

JavaScript Object Notation format (JSON) in row-major order
http://www.bom.gov.au/fwo/IDN60801/IDN60801.95931.json